Pinebluff, North Carolina
Current Conditions -  °F | °C
As of 1:56 PM on Tuesday 21 Oct 2014 (Local Time) from KHFF Reporting Station
Clear Clear  
Wind Chill: 77°   Ceiling: Unl
Heat Index: 78°   Visibility: 10mi
Dew Point: 44°   Wind: 12mph
Humidity: 31%   Direction: 290°WNW
Pressure: 29.88"   Gusts: 18mph
Location:  35.11°N, 79.47°W
Report Text: KHFF 211756Z AUTO 29010G16KT 260V330 10SM CLR 25/07 A2988 RMK AO2 SLP119 T02490067 10253 20085 57025
Loading
Personal Weather Stations






























Interactive Weather Map
Tropical Storm Tracking
New forecast layout! Learn more

10-Day Weather Forecast

Advertisements
Track Severe Weather on mobile